sensor_id;sensor_type;location;lat;lon;timestamp;P1;durP1;ratioP1;P2;durP2;ratioP2
21731;SDS011;11028;51.156;17.130;2024-02-26T00:06:51;54.67;;;25.17;;
21731;SDS011;11028;51.156;17.130;2024-02-26T00:14:13;56.83;;;27.08;;
21731;SDS011;11028;51.156;17.130;2024-02-26T00:21:31;55.03;;;24.75;;
21731;SDS011;11028;51.156;17.130;2024-02-26T00:28:51;51.17;;;24.35;;
21731;SDS011;11028;51.156;17.130;2024-02-26T00:36:10;56.15;;;26.33;;
21731;SDS011;11028;51.156;17.130;2024-02-26T00:43:28;53.10;;;22.58;;
21731;SDS011;11028;51.156;17.130;2024-02-26T00:50:48;57.20;;;27.38;;
21731;SDS011;11028;51.156;17.130;2024-02-26T00:58:07;63.42;;;29.73;;
21731;SDS011;11028;51.156;17.130;2024-02-26T01:05:26;50.08;;;25.95;;
21731;SDS011;11028;51.156;17.130;2024-02-26T01:12:45;45.47;;;22.70;;
21731;SDS011;11028;51.156;17.130;2024-02-26T01:20:05;45.95;;;24.17;;
21731;SDS011;11028;51.156;17.130;2024-02-26T01:27:25;45.25;;;22.15;;
21731;SDS011;11028;51.156;17.130;2024-02-26T01:34:45;51.92;;;23.48;;
21731;SDS011;11028;51.156;17.130;2024-02-26T01:42:06;43.75;;;21.92;;
21731;SDS011;11028;51.156;17.130;2024-02-26T01:49:27;37.53;;;19.95;;
21731;SDS011;11028;51.156;17.130;2024-02-26T01:56:47;30.88;;;16.58;;
21731;SDS011;11028;51.156;17.130;2024-02-26T02:04:06;34.00;;;17.33;;
21731;SDS011;11028;51.156;17.130;2024-02-26T02:11:25;38.47;;;16.90;;
21731;SDS011;11028;51.156;17.130;2024-02-26T02:18:44;36.00;;;17.50;;
21731;SDS011;11028;51.156;17.130;2024-02-26T02:26:06;37.50;;;18.27;;
21731;SDS011;11028;51.156;17.130;2024-02-26T02:33:25;38.53;;;18.95;;
21731;SDS011;11028;51.156;17.130;2024-02-26T02:40:47;34.97;;;17.00;;
21731;SDS011;11028;51.156;17.130;2024-02-26T02:48:07;31.38;;;15.57;;
21731;SDS011;11028;51.156;17.130;2024-02-26T02:55:26;33.47;;;15.60;;
21731;SDS011;11028;51.156;17.130;2024-02-26T03:02:45;30.92;;;14.35;;
21731;SDS011;11028;51.156;17.130;2024-02-26T03:10:06;31.08;;;15.02;;
21731;SDS011;11028;51.156;17.130;2024-02-26T03:17:25;31.52;;;15.32;;
21731;SDS011;11028;51.156;17.130;2024-02-26T03:24:43;35.03;;;15.48;;
21731;SDS011;11028;51.156;17.130;2024-02-26T03:32:04;42.40;;;18.58;;
21731;SDS011;11028;51.156;17.130;2024-02-26T03:39:24;37.53;;;19.35;;
21731;SDS011;11028;51.156;17.130;2024-02-26T03:46:44;40.17;;;21.13;;
21731;SDS011;11028;51.156;17.130;2024-02-26T03:54:11;41.08;;;21.13;;
21731;SDS011;11028;51.156;17.130;2024-02-26T04:01:29;40.67;;;20.20;;
21731;SDS011;11028;51.156;17.130;2024-02-26T04:08:48;41.33;;;21.83;;
21731;SDS011;11028;51.156;17.130;2024-02-26T04:16:09;40.13;;;18.83;;
21731;SDS011;11028;51.156;17.130;2024-02-26T04:23:27;34.50;;;16.67;;
21731;SDS011;11028;51.156;17.130;2024-02-26T04:30:46;38.40;;;18.52;;
21731;SDS011;11028;51.156;17.130;2024-02-26T04:38:06;39.33;;;18.40;;
21731;SDS011;11028;51.156;17.130;2024-02-26T04:45:25;42.22;;;20.20;;
21731;SDS011;11028;51.156;17.130;2024-02-26T04:52:43;40.88;;;20.35;;
21731;SDS011;11028;51.156;17.130;2024-02-26T05:00:03;42.72;;;21.38;;
21731;SDS011;11028;51.156;17.130;2024-02-26T05:07:23;39.00;;;20.00;;
21731;SDS011;11028;51.156;17.130;2024-02-26T05:14:41;39.63;;;21.13;;
21731;SDS011;11028;51.156;17.130;2024-02-26T05:22:01;50.50;;;24.15;;
21731;SDS011;11028;51.156;17.130;2024-02-26T05:29:20;41.22;;;21.30;;
21731;SDS011;11028;51.156;17.130;2024-02-26T05:36:39;45.92;;;22.85;;
21731;SDS011;11028;51.156;17.130;2024-02-26T05:43:58;46.60;;;22.52;;
21731;SDS011;11028;51.156;17.130;2024-02-26T05:51:17;41.88;;;23.42;;
21731;SDS011;11028;51.156;17.130;2024-02-26T05:58:35;49.05;;;23.40;;
21731;SDS011;11028;51.156;17.130;2024-02-26T06:05:55;46.80;;;22.30;;
21731;SDS011;11028;51.156;17.130;2024-02-26T06:13:13;43.35;;;20.23;;
21731;SDS011;11028;51.156;17.130;2024-02-26T06:20:32;45.70;;;19.92;;
21731;SDS011;11028;51.156;17.130;2024-02-26T06:27:53;36.90;;;18.25;;
21731;SDS011;11028;51.156;17.130;2024-02-26T06:35:12;38.40;;;17.27;;
21731;SDS011;11028;51.156;17.130;2024-02-26T06:42:31;40.05;;;18.15;;
21731;SDS011;11028;51.156;17.130;2024-02-26T06:49:53;36.80;;;16.75;;
21731;SDS011;11028;51.156;17.130;2024-02-26T06:57:15;38.35;;;17.23;;
21731;SDS011;11028;51.156;17.130;2024-02-26T07:04:34;34.28;;;16.10;;
21731;SDS011;11028;51.156;17.130;2024-02-26T07:11:55;36.05;;;16.92;;
21731;SDS011;11028;51.156;17.130;2024-02-26T07:19:17;32.05;;;16.35;;
21731;SDS011;11028;51.156;17.130;2024-02-26T07:26:35;32.80;;;16.65;;
21731;SDS011;11028;51.156;17.130;2024-02-26T07:33:55;32.95;;;17.20;;
21731;SDS011;11028;51.156;17.130;2024-02-26T07:41:14;36.00;;;16.92;;
21731;SDS011;11028;51.156;17.130;2024-02-26T07:48:33;28.35;;;15.20;;
21731;SDS011;11028;51.156;17.130;2024-02-26T07:55:53;38.70;;;17.58;;
21731;SDS011;11028;51.156;17.130;2024-02-26T08:03:11;27.35;;;13.68;;
21731;SDS011;11028;51.156;17.130;2024-02-26T08:10:33;23.20;;;13.55;;
21731;SDS011;11028;51.156;17.130;2024-02-26T08:17:53;21.52;;;11.32;;
21731;SDS011;11028;51.156;17.130;2024-02-26T08:25:12;25.02;;;12.75;;
21731;SDS011;11028;51.156;17.130;2024-02-26T08:32:32;19.70;;;10.95;;
21731;SDS011;11028;51.156;17.130;2024-02-26T08:39:52;22.23;;;10.07;;
21731;SDS011;11028;51.156;17.130;2024-02-26T08:47:10;15.48;;;8.48;;
21731;SDS011;11028;51.156;17.130;2024-02-26T08:54:29;12.43;;;6.95;;
21731;SDS011;11028;51.156;17.130;2024-02-26T09:01:50;9.90;;;5.95;;
21731;SDS011;11028;51.156;17.130;2024-02-26T09:09:09;9.63;;;4.97;;
21731;SDS011;11028;51.156;17.130;2024-02-26T09:16:27;8.18;;;4.85;;
21731;SDS011;11028;51.156;17.130;2024-02-26T09:23:47;7.53;;;3.95;;
21731;SDS011;11028;51.156;17.130;2024-02-26T09:31:05;12.57;;;4.35;;
21731;SDS011;11028;51.156;17.130;2024-02-26T09:38:24;6.93;;;3.72;;
21731;SDS011;11028;51.156;17.130;2024-02-26T09:45:44;8.10;;;3.75;;
21731;SDS011;11028;51.156;17.130;2024-02-26T09:53:03;6.00;;;3.65;;
21731;SDS011;11028;51.156;17.130;2024-02-26T10:00:24;4.68;;;3.33;;
21731;SDS011;11028;51.156;17.130;2024-02-26T10:07:45;6.18;;;3.55;;
21731;SDS011;11028;51.156;17.130;2024-02-26T10:15:04;6.68;;;2.90;;
21731;SDS011;11028;51.156;17.130;2024-02-26T10:22:23;4.90;;;3.10;;
21731;SDS011;11028;51.156;17.130;2024-02-26T10:29:43;6.95;;;3.35;;
21731;SDS011;11028;51.156;17.130;2024-02-26T10:37:04;4.72;;;2.90;;
21731;SDS011;11028;51.156;17.130;2024-02-26T10:44:23;4.97;;;3.03;;
21731;SDS011;11028;51.156;17.130;2024-02-26T10:51:45;6.68;;;4.20;;
21731;SDS011;11028;51.156;17.130;2024-02-26T10:59:09;9.52;;;4.10;;
21731;SDS011;11028;51.156;17.130;2024-02-26T11:06:28;8.38;;;4.32;;
21731;SDS011;11028;51.156;17.130;2024-02-26T11:13:48;11.00;;;4.35;;
21731;SDS011;11028;51.156;17.130;2024-02-26T11:21:07;7.20;;;4.13;;
21731;SDS011;11028;51.156;17.130;2024-02-26T11:28:26;6.88;;;4.22;;
21731;SDS011;11028;51.156;17.130;2024-02-26T11:35:47;7.32;;;3.88;;
21731;SDS011;11028;51.156;17.130;2024-02-26T11:43:18;6.75;;;2.72;;
21731;SDS011;11028;51.156;17.130;2024-02-26T11:50:39;5.63;;;2.63;;
21731;SDS011;11028;51.156;17.130;2024-02-26T11:57:58;6.35;;;3.25;;
21731;SDS011;11028;51.156;17.130;2024-02-26T12:05:18;4.32;;;2.53;;
21731;SDS011;11028;51.156;17.130;2024-02-26T12:12:41;3.90;;;2.35;;
21731;SDS011;11028;51.156;17.130;2024-02-26T12:20:08;5.43;;;2.50;;
21731;SDS011;11028;51.156;17.130;2024-02-26T12:27:29;4.45;;;2.30;;
21731;SDS011;11028;51.156;17.130;2024-02-26T12:34:47;5.93;;;2.90;;
21731;SDS011;11028;51.156;17.130;2024-02-26T12:42:06;5.15;;;2.20;;
21731;SDS011;11028;51.156;17.130;2024-02-26T12:49:26;3.08;;;2.50;;
21731;SDS011;11028;51.156;17.130;2024-02-26T12:56:44;6.65;;;2.78;;
21731;SDS011;11028;51.156;17.130;2024-02-26T13:04:04;5.35;;;2.40;;
21731;SDS011;11028;51.156;17.130;2024-02-26T13:11:25;2.97;;;2.40;;
21731;SDS011;11028;51.156;17.130;2024-02-26T13:18:48;4.65;;;2.85;;
21731;SDS011;11028;51.156;17.130;2024-02-26T13:26:07;4.85;;;2.88;;
21731;SDS011;11028;51.156;17.130;2024-02-26T13:33:27;5.35;;;2.88;;
21731;SDS011;11028;51.156;17.130;2024-02-26T13:40:46;7.82;;;2.50;;
21731;SDS011;11028;51.156;17.130;2024-02-26T13:48:07;2.92;;;2.25;;
21731;SDS011;11028;51.156;17.130;2024-02-26T13:55:30;6.20;;;2.88;;
21731;SDS011;11028;51.156;17.130;2024-02-26T14:02:51;3.22;;;2.30;;
21731;SDS011;11028;51.156;17.130;2024-02-26T14:10:11;4.05;;;2.30;;
21731;SDS011;11028;51.156;17.130;2024-02-26T14:17:31;5.38;;;2.38;;
21731;SDS011;11028;51.156;17.130;2024-02-26T14:24:50;5.45;;;2.67;;
21731;SDS011;11028;51.156;17.130;2024-02-26T14:32:09;3.78;;;2.80;;
21731;SDS011;11028;51.156;17.130;2024-02-26T14:39:29;5.35;;;2.50;;
21731;SDS011;11028;51.156;17.130;2024-02-26T14:46:48;3.53;;;2.20;;
21731;SDS011;11028;51.156;17.130;2024-02-26T14:54:07;6.30;;;3.13;;
21731;SDS011;11028;51.156;17.130;2024-02-26T15:01:27;6.05;;;3.75;;
21731;SDS011;11028;51.156;17.130;2024-02-26T15:08:45;8.55;;;4.18;;
21731;SDS011;11028;51.156;17.130;2024-02-26T15:16:04;9.77;;;4.25;;
21731;SDS011;11028;51.156;17.130;2024-02-26T15:23:23;7.57;;;4.63;;
21731;SDS011;11028;51.156;17.130;2024-02-26T15:30:44;11.35;;;4.20;;
21731;SDS011;11028;51.156;17.130;2024-02-26T15:38:03;9.57;;;4.18;;
21731;SDS011;11028;51.156;17.130;2024-02-26T15:45:23;9.57;;;4.38;;
21731;SDS011;11028;51.156;17.130;2024-02-26T15:52:41;10.02;;;4.68;;
21731;SDS011;11028;51.156;17.130;2024-02-26T16:00:00;14.35;;;4.65;;
21731;SDS011;11028;51.156;17.130;2024-02-26T16:07:33;11.70;;;5.82;;
21731;SDS011;11028;51.156;17.130;2024-02-26T16:14:53;17.45;;;7.47;;
21731;SDS011;11028;51.156;17.130;2024-02-26T16:22:12;17.90;;;8.00;;
21731;SDS011;11028;51.156;17.130;2024-02-26T16:29:32;16.77;;;8.13;;
21731;SDS011;11028;51.156;17.130;2024-02-26T16:36:51;13.50;;;6.28;;
21731;SDS011;11028;51.156;17.130;2024-02-26T16:44:09;12.52;;;6.07;;
21731;SDS011;11028;51.156;17.130;2024-02-26T16:51:29;11.48;;;5.47;;
21731;SDS011;11028;51.156;17.130;2024-02-26T16:58:48;11.77;;;6.68;;
21731;SDS011;11028;51.156;17.130;2024-02-26T17:06:06;11.77;;;6.32;;
21731;SDS011;11028;51.156;17.130;2024-02-26T17:13:26;16.30;;;7.20;;
21731;SDS011;11028;51.156;17.130;2024-02-26T17:20:45;18.02;;;7.60;;
21731;SDS011;11028;51.156;17.130;2024-02-26T17:28:05;14.95;;;7.72;;
21731;SDS011;11028;51.156;17.130;2024-02-26T17:35:25;16.10;;;7.80;;
21731;SDS011;11028;51.156;17.130;2024-02-26T17:42:43;12.32;;;6.55;;
21731;SDS011;11028;51.156;17.130;2024-02-26T17:50:02;14.77;;;7.35;;
21731;SDS011;11028;51.156;17.130;2024-02-26T17:57:24;18.10;;;7.90;;
21731;SDS011;11028;51.156;17.130;2024-02-26T18:04:48;17.20;;;7.40;;
21731;SDS011;11028;51.156;17.130;2024-02-26T18:12:06;19.05;;;9.05;;
21731;SDS011;11028;51.156;17.130;2024-02-26T18:19:27;15.45;;;7.68;;
21731;SDS011;11028;51.156;17.130;2024-02-26T18:26:48;14.45;;;7.55;;
21731;SDS011;11028;51.156;17.130;2024-02-26T18:34:08;17.23;;;8.65;;
21731;SDS011;11028;51.156;17.130;2024-02-26T18:41:28;23.25;;;10.57;;
21731;SDS011;11028;51.156;17.130;2024-02-26T18:48:48;38.25;;;17.48;;
21731;SDS011;11028;51.156;17.130;2024-02-26T18:56:10;34.70;;;15.00;;
21731;SDS011;11028;51.156;17.130;2024-02-26T19:03:32;35.15;;;15.20;;
21731;SDS011;11028;51.156;17.130;2024-02-26T19:10:51;29.45;;;15.18;;
21731;SDS011;11028;51.156;17.130;2024-02-26T19:18:12;32.20;;;14.80;;
21731;SDS011;11028;51.156;17.130;2024-02-26T19:25:34;26.08;;;12.13;;
21731;SDS011;11028;51.156;17.130;2024-02-26T19:32:52;19.55;;;10.27;;
21731;SDS011;11028;51.156;17.130;2024-02-26T19:40:11;25.30;;;10.70;;
21731;SDS011;11028;51.156;17.130;2024-02-26T19:47:31;22.15;;;12.52;;
21731;SDS011;11028;51.156;17.130;2024-02-26T19:54:51;24.08;;;12.32;;
21731;SDS011;11028;51.156;17.130;2024-02-26T20:02:09;33.08;;;15.50;;
21731;SDS011;11028;51.156;17.130;2024-02-26T20:09:32;94.55;;;34.67;;
21731;SDS011;11028;51.156;17.130;2024-02-26T20:16:50;89.07;;;33.85;;
21731;SDS011;11028;51.156;17.130;2024-02-26T20:24:09;85.03;;;33.90;;
21731;SDS011;11028;51.156;17.130;2024-02-26T20:31:29;84.03;;;34.63;;
21731;SDS011;11028;51.156;17.130;2024-02-26T20:38:51;93.63;;;39.38;;
21731;SDS011;11028;51.156;17.130;2024-02-26T20:46:10;87.82;;;35.60;;
21731;SDS011;11028;51.156;17.130;2024-02-26T20:53:30;74.85;;;32.15;;
21731;SDS011;11028;51.156;17.130;2024-02-26T21:00:48;90.13;;;36.92;;
21731;SDS011;11028;51.156;17.130;2024-02-26T21:08:07;86.25;;;34.30;;
21731;SDS011;11028;51.156;17.130;2024-02-26T21:15:41;50.70;;;22.08;;
21731;SDS011;11028;51.156;17.130;2024-02-26T21:22:59;51.53;;;22.77;;
21731;SDS011;11028;51.156;17.130;2024-02-26T21:30:18;54.70;;;23.10;;
21731;SDS011;11028;51.156;17.130;2024-02-26T21:37:38;53.25;;;21.95;;
21731;SDS011;11028;51.156;17.130;2024-02-26T21:44:56;48.65;;;22.38;;
21731;SDS011;11028;51.156;17.130;2024-02-26T21:52:15;46.30;;;21.67;;
21731;SDS011;11028;51.156;17.130;2024-02-26T21:59:35;46.40;;;22.35;;
21731;SDS011;11028;51.156;17.130;2024-02-26T22:06:55;46.35;;;20.35;;
21731;SDS011;11028;51.156;17.130;2024-02-26T22:14:17;47.50;;;22.77;;
21731;SDS011;11028;51.156;17.130;2024-02-26T22:21:37;52.95;;;22.70;;
21731;SDS011;11028;51.156;17.130;2024-02-26T22:28:55;52.40;;;24.10;;
21731;SDS011;11028;51.156;17.130;2024-02-26T22:36:13;67.32;;;27.30;;
21731;SDS011;11028;51.156;17.130;2024-02-26T22:43:33;56.47;;;26.00;;
21731;SDS011;11028;51.156;17.130;2024-02-26T22:50:52;61.67;;;25.42;;
21731;SDS011;11028;51.156;17.130;2024-02-26T22:58:10;55.58;;;24.25;;
21731;SDS011;11028;51.156;17.130;2024-02-26T23:05:30;55.28;;;24.60;;
21731;SDS011;11028;51.156;17.130;2024-02-26T23:12:50;53.42;;;23.10;;
21731;SDS011;11028;51.156;17.130;2024-02-26T23:20:09;49.95;;;23.23;;
21731;SDS011;11028;51.156;17.130;2024-02-26T23:27:30;47.55;;;20.92;;
21731;SDS011;11028;51.156;17.130;2024-02-26T23:34:48;49.97;;;22.67;;
21731;SDS011;11028;51.156;17.130;2024-02-26T23:42:07;47.08;;;21.83;;
21731;SDS011;11028;51.156;17.130;2024-02-26T23:49:27;47.45;;;21.67;;
21731;SDS011;11028;51.156;17.130;2024-02-26T23:56:45;55.80;;;22.23;;
